createdAt,value
2023-02-03T00:00:28.717Z,7.87
2023-02-03T00:02:55.503Z,6.17
2023-02-03T00:05:22.213Z,6.27
2023-02-03T00:07:48.816Z,6.53
2023-02-03T00:10:15.793Z,4.13
2023-02-03T00:12:42.397Z,4.80
2023-02-03T00:15:09.334Z,7.73
2023-02-03T00:17:35.979Z,6.87
2023-02-03T00:20:02.573Z,7.63
2023-02-03T00:22:29.207Z,4.80
2023-02-03T00:24:55.804Z,4.60
2023-02-03T00:27:22.414Z,6.33
2023-02-03T00:29:49.001Z,4.07
2023-02-03T00:32:15.722Z,5.43
2023-02-03T00:34:42.353Z,4.83
2023-02-03T00:37:08.942Z,3.97
2023-02-03T00:39:38.366Z,5.80
2023-02-03T00:42:05.490Z,3.87
2023-02-03T00:44:32.159Z,4.13
2023-02-03T00:46:58.995Z,6.00
2023-02-03T00:49:25.597Z,6.17
2023-02-03T00:51:52.236Z,3.80
2023-02-03T00:54:18.813Z,4.73
2023-02-03T00:56:45.643Z,5.57
2023-02-03T00:59:12.252Z,4.93
2023-02-03T01:01:38.876Z,7.20
2023-02-03T01:04:05.669Z,4.67
2023-02-03T01:06:32.263Z,6.93
2023-02-03T01:08:58.853Z,5.07
2023-02-03T01:11:27.123Z,6.83
2023-02-03T01:13:54.627Z,7.70
2023-02-03T01:16:22.159Z,7.60
2023-02-03T01:18:48.849Z,5.93
2023-02-03T01:21:20.292Z,7.03
2023-02-03T01:23:46.923Z,6.60
2023-02-03T01:26:14.984Z,4.53
2023-02-03T01:28:41.642Z,4.97
2023-02-03T01:31:16.550Z,4.20
2023-02-03T01:33:46.177Z,4.17
2023-02-03T01:36:12.885Z,7.17
2023-02-03T01:38:39.503Z,7.27
2023-02-03T01:41:07.484Z,5.47
2023-02-03T01:43:39.272Z,6.57
2023-02-03T01:46:26.992Z,3.80
2023-02-03T01:48:54.836Z,3.07
2023-02-03T01:51:22.336Z,5.13
2023-02-03T01:53:49.779Z,5.17
2023-02-03T01:56:16.419Z,4.77
2023-02-03T01:58:43.039Z,4.47
2023-02-03T02:01:09.722Z,4.63
2023-02-03T02:03:48.644Z,6.37
2023-02-03T02:06:15.250Z,6.53
2023-02-03T02:08:44.206Z,7.13
2023-02-03T02:11:10.794Z,3.83
2023-02-03T02:13:37.413Z,4.20
2023-02-03T02:16:28.483Z,4.73
2023-02-03T02:19:32.926Z,4.17
2023-02-03T02:22:08.035Z,5.43
2023-02-03T02:25:03.668Z,4.57
2023-02-03T02:27:42.843Z,3.73
2023-02-03T02:30:26.983Z,5.77
2023-02-03T02:33:18.931Z,4.40
2023-02-03T02:35:58.802Z,4.00
2023-02-03T02:39:02.900Z,4.87
2023-02-03T02:41:39.861Z,6.87
2023-02-03T02:44:16.751Z,5.23
2023-02-03T02:47:07.092Z,5.40
2023-02-03T02:49:38.345Z,4.27
2023-02-03T02:52:05.621Z,6.23
2023-02-03T02:54:32.532Z,5.03
2023-02-03T02:57:00.963Z,5.60
2023-02-03T02:59:27.598Z,7.60
2023-02-03T03:01:54.275Z,6.93
2023-02-03T03:04:23.754Z,3.40
2023-02-03T03:07:19.785Z,3.70
2023-02-03T03:09:48.841Z,4.37
2023-02-03T03:12:22.595Z,4.77
2023-02-03T03:14:53.457Z,5.00
2023-02-03T03:17:24.702Z,6.00
2023-02-03T03:19:54.034Z,6.60
2023-02-03T03:22:22.185Z,4.73
2023-02-03T03:24:50.896Z,5.03
2023-02-03T03:27:25.083Z,6.47
2023-02-03T03:29:56.391Z,6.10
2023-02-03T03:32:22.973Z,4.97
2023-02-03T03:34:49.560Z,5.47
2023-02-03T03:37:22.541Z,3.50
2023-02-03T03:39:54.021Z,5.20
2023-02-03T03:42:31.610Z,4.87
2023-02-03T03:45:07.504Z,4.90
2023-02-03T03:47:38.614Z,3.63
2023-02-03T03:50:06.157Z,4.90
2023-02-03T03:52:34.724Z,4.50
2023-02-03T03:55:02.546Z,5.67
2023-02-03T03:57:33.270Z,6.07
2023-02-03T03:59:59.898Z,4.60
2023-02-03T04:02:26.584Z,4.17
2023-02-03T04:04:53.247Z,4.37
2023-02-03T04:07:20.254Z,5.07
2023-02-03T04:09:46.914Z,5.03
2023-02-03T04:12:16.614Z,4.60
2023-02-03T04:14:43.263Z,6.23
2023-02-03T04:17:09.888Z,4.73
2023-02-03T04:19:36.491Z,6.03
2023-02-03T04:22:03.103Z,5.63
2023-02-03T04:24:29.698Z,5.63
2023-02-03T04:26:56.316Z,4.53
2023-02-03T04:29:22.961Z,3.87
2023-02-03T04:31:49.643Z,4.33
2023-02-03T04:34:16.312Z,4.90
2023-02-03T04:36:42.911Z,3.97
2023-02-03T04:39:09.547Z,5.57
2023-02-03T04:41:36.129Z,5.13
2023-02-03T04:44:02.789Z,6.83
2023-02-03T04:46:29.389Z,4.30
2023-02-03T04:48:55.995Z,4.87
2023-02-03T04:51:22.575Z,4.47
2023-02-03T04:53:49.173Z,3.27
2023-02-03T04:56:16.528Z,4.77
2023-02-03T04:58:43.144Z,2.67
2023-02-03T05:01:09.960Z,5.20
2023-02-03T05:03:36.781Z,4.43
2023-02-03T05:06:03.532Z,5.87
2023-02-03T05:08:30.559Z,5.40
2023-02-03T05:10:57.327Z,4.63
2023-02-03T05:13:23.914Z,5.77
2023-02-03T05:15:50.505Z,7.00
2023-02-03T05:18:17.087Z,3.50
2023-02-03T05:20:43.691Z,5.63
2023-02-03T05:23:10.269Z,4.80
2023-02-03T05:25:36.876Z,4.70
2023-02-03T05:28:03.680Z,5.37
2023-02-03T05:30:30.755Z,5.40
2023-02-03T05:32:57.486Z,3.90
2023-02-03T05:35:24.090Z,4.70
2023-02-03T05:37:50.701Z,3.23
2023-02-03T05:40:35.952Z,5.50
2023-02-03T05:43:02.552Z,3.30
2023-02-03T05:45:29.233Z,3.70
2023-02-03T05:47:55.837Z,9.40
2023-02-03T05:50:22.865Z,5.03
2023-02-03T05:52:50.062Z,5.00
2023-02-03T05:55:16.767Z,6.73
2023-02-03T05:57:43.525Z,3.43
2023-02-03T06:00:10.805Z,3.93
2023-02-03T06:02:37.392Z,2.67
2023-02-03T06:05:04.131Z,2.97
2023-02-03T06:07:30.727Z,4.17
2023-02-03T06:09:57.342Z,3.60
2023-02-03T06:12:23.956Z,3.93
2023-02-03T06:14:50.729Z,2.90
2023-02-03T06:17:17.325Z,6.23
2023-02-03T06:19:43.915Z,3.27
2023-02-03T06:22:10.522Z,5.07
2023-02-03T06:24:37.128Z,3.83
2023-02-03T06:27:03.717Z,5.10
2023-02-03T06:29:30.305Z,4.10
2023-02-03T06:31:57.566Z,4.67
2023-02-03T06:34:24.275Z,3.87
2023-02-03T06:36:50.885Z,3.13
2023-02-03T06:39:17.638Z,5.07
2023-02-03T06:41:44.233Z,6.53
2023-02-03T06:44:10.827Z,4.77
2023-02-03T06:46:37.820Z,4.37
2023-02-03T06:49:04.477Z,4.83
2023-02-03T06:51:31.084Z,5.47
2023-02-03T06:53:58.791Z,4.87
2023-02-03T06:56:25.508Z,4.70
2023-02-03T06:58:52.142Z,13.43
2023-02-03T07:01:18.830Z,4.33
2023-02-03T07:03:45.432Z,3.30
2023-02-03T07:06:12.047Z,4.23
2023-02-03T07:08:38.636Z,4.70
2023-02-03T07:11:05.381Z,5.07
2023-02-03T07:13:31.961Z,4.87
2023-02-03T07:15:58.563Z,4.63
2023-02-03T07:21:13.475Z,4.67
2023-02-03T07:23:40.136Z,6.50
2023-02-03T07:26:07.084Z,13.10
2023-02-03T07:28:35.855Z,8.80
2023-02-03T07:31:04.671Z,4.20
2023-02-03T07:33:31.677Z,9.07
2023-02-03T07:35:59.022Z,6.23
2023-02-03T07:38:26.363Z,7.87
2023-02-03T07:40:53.065Z,8.17
2023-02-03T07:43:19.747Z,8.27
2023-02-03T07:45:46.421Z,7.83
2023-02-03T07:48:13.039Z,3.90
2023-02-03T07:50:39.778Z,7.50
2023-02-03T07:53:06.567Z,10.63
2023-02-03T07:55:34.294Z,5.90
2023-02-03T07:58:03.184Z,6.17
2023-02-03T08:00:30.237Z,6.10
2023-02-03T08:02:57.010Z,4.43
2023-02-03T08:05:23.640Z,6.80
2023-02-03T08:07:50.246Z,5.40
2023-02-03T08:10:17.794Z,4.37
2023-02-03T08:12:45.480Z,6.80
2023-02-03T08:15:12.187Z,6.23
2023-02-03T08:17:41.156Z,8.20
2023-02-03T08:20:09.233Z,8.53
2023-02-03T08:22:35.881Z,5.27
2023-02-03T08:25:02.626Z,2.90
2023-02-03T08:27:29.238Z,6.57
2023-02-03T08:29:55.840Z,7.73
2023-02-03T08:32:22.958Z,5.37
2023-02-03T08:34:49.700Z,6.67
2023-02-03T08:37:16.931Z,10.17
2023-02-03T08:39:43.738Z,10.90
2023-02-03T08:42:10.527Z,13.67
2023-02-03T08:44:38.968Z,9.70
2023-02-03T08:47:05.901Z,13.17
2023-02-03T08:49:32.511Z,10.53
2023-02-03T08:51:59.182Z,12.97
2023-02-03T08:54:25.944Z,11.77
2023-02-03T08:56:52.573Z,8.33
2023-02-03T08:59:19.271Z,14.73
2023-02-03T09:01:48.343Z,11.57
2023-02-03T09:04:18.340Z,7.73
2023-02-03T09:06:47.777Z,8.63
2023-02-03T09:09:17.261Z,13.77
2023-02-03T09:11:43.879Z,7.17
2023-02-03T09:14:10.497Z,7.90
2023-02-03T09:16:37.187Z,7.10
2023-02-03T09:19:03.829Z,10.17
2023-02-03T09:21:36.679Z,8.80
2023-02-03T09:24:08.811Z,10.17
2023-02-03T09:26:35.419Z,7.63
2023-02-03T09:29:02.026Z,5.60
2023-02-03T09:31:28.679Z,7.50
2023-02-03T09:33:55.359Z,7.00
2023-02-03T09:36:21.973Z,9.97
2023-02-03T09:38:48.610Z,11.00
2023-02-03T09:41:32.420Z,10.87
2023-02-03T09:44:14.327Z,8.87
2023-02-03T09:46:43.356Z,6.40
2023-02-03T09:49:15.595Z,7.17
2023-02-03T09:51:51.567Z,6.73
2023-02-03T09:54:20.034Z,6.97
2023-02-03T09:56:52.170Z,5.03
2023-02-03T09:59:22.745Z,8.63
2023-02-03T10:02:09.661Z,5.93
2023-02-03T10:04:42.122Z,7.17
2023-02-03T10:07:32.847Z,9.30
2023-02-03T10:10:12.058Z,6.73
2023-02-03T10:12:47.535Z,4.93
2023-02-03T10:15:16.919Z,5.40
2023-02-03T10:17:46.563Z,7.97
2023-02-03T10:20:21.896Z,6.43
2023-02-03T10:22:50.959Z,6.43
2023-02-03T10:25:34.120Z,5.37
2023-02-03T10:28:03.313Z,4.67
2023-02-03T10:30:33.300Z,5.37
2023-02-03T10:33:14.323Z,8.23
2023-02-03T10:36:00.995Z,5.53
2023-02-03T10:38:42.574Z,5.50
2023-02-03T10:41:09.199Z,5.00
2023-02-03T10:43:47.737Z,6.97
2023-02-03T10:46:31.029Z,6.00
2023-02-03T10:48:57.802Z,4.80
2023-02-03T10:51:26.665Z,6.47
2023-02-03T10:53:53.625Z,6.27
2023-02-03T10:56:22.892Z,5.23
2023-02-03T10:58:50.512Z,3.93
2023-02-03T11:01:19.037Z,5.67
2023-02-03T11:03:55.999Z,9.10
2023-02-03T11:06:22.587Z,16.33
2023-02-03T11:08:49.848Z,7.07
2023-02-03T11:11:33.813Z,9.17
2023-02-03T11:14:03.452Z,9.20
2023-02-03T11:16:30.910Z,7.43
2023-02-03T11:19:02.722Z,7.27
2023-02-03T11:21:38.220Z,8.70
2023-02-03T11:24:27.423Z,10.07
2023-02-03T11:27:04.837Z,9.63
2023-02-03T11:29:32.285Z,11.70
2023-02-03T11:32:03.492Z,10.43
2023-02-03T11:34:32.147Z,14.20
2023-02-03T11:37:02.629Z,9.53
2023-02-03T11:39:30.208Z,7.67
2023-02-03T11:41:56.934Z,13.73
2023-02-03T11:44:29.438Z,6.90
2023-02-03T11:46:59.232Z,12.90
2023-02-03T11:49:54.971Z,9.47
2023-02-03T11:52:34.312Z,14.20
2023-02-03T11:55:19.461Z,12.23
2023-02-03T11:57:49.811Z,23.63
2023-02-03T12:00:31.424Z,10.10
2023-02-03T12:03:29.877Z,11.63
2023-02-03T12:06:08.781Z,9.33
2023-02-03T12:09:04.523Z,8.80
2023-02-03T12:11:56.473Z,10.40
2023-02-03T12:14:27.549Z,7.10
2023-02-03T12:16:57.050Z,8.77
2023-02-03T12:19:46.271Z,6.90
2023-02-03T12:22:34.047Z,8.23
2023-02-03T12:25:23.467Z,5.17
2023-02-03T12:28:00.715Z,7.63
2023-02-03T12:30:43.975Z,8.83
2023-02-03T12:33:24.927Z,9.37
2023-02-03T12:36:27.668Z,9.43
2023-02-03T12:39:09.180Z,9.93
2023-02-03T12:41:38.430Z,9.27
2023-02-03T12:44:08.553Z,6.10
2023-02-03T12:46:43.264Z,4.13
2023-02-03T12:49:18.756Z,8.10
2023-02-03T12:52:00.353Z,6.50
2023-02-03T12:54:50.685Z,8.27
2023-02-03T12:57:18.805Z,8.20
2023-02-03T13:00:10.781Z,8.57
2023-02-03T13:02:52.783Z,11.37
2023-02-03T13:05:26.245Z,7.03
2023-02-03T13:08:14.903Z,5.50
2023-02-03T13:10:45.512Z,7.80
2023-02-03T13:13:13.037Z,8.57
2023-02-03T13:15:43.320Z,9.60
2023-02-03T13:18:26.190Z,6.57
2023-02-03T13:20:54.169Z,7.07
2023-02-03T13:23:20.772Z,6.93
2023-02-03T13:26:10.954Z,8.87
2023-02-03T13:29:13.865Z,31.43
2023-02-03T13:32:28.442Z,8.13
2023-02-03T13:35:24.746Z,6.83
2023-02-03T13:38:36.785Z,5.87
2023-02-03T13:41:17.846Z,8.20
2023-02-03T13:43:46.501Z,7.50
2023-02-03T13:46:23.799Z,5.80
2023-02-03T13:48:50.455Z,5.50
2023-02-03T13:51:19.944Z,8.20
2023-02-03T13:53:46.687Z,9.17
2023-02-03T13:56:23.832Z,11.83
2023-02-03T13:59:12.849Z,7.53
2023-02-03T14:01:40.443Z,6.10
2023-02-03T14:04:24.950Z,12.13
2023-02-03T14:06:54.524Z,8.43
2023-02-03T14:09:34.488Z,6.33
2023-02-03T14:12:33.232Z,9.37
2023-02-03T14:15:04.843Z,6.90
2023-02-03T14:17:34.292Z,8.07
2023-02-03T14:20:00.932Z,9.10
2023-02-03T14:22:27.923Z,6.97
2023-02-03T14:24:55.739Z,7.07
2023-02-03T14:27:26.714Z,6.93
2023-02-03T14:30:12.426Z,8.83
2023-02-03T14:32:48.525Z,8.23
2023-02-03T14:35:22.007Z,10.20
2023-02-03T14:37:55.812Z,8.37
2023-02-03T14:40:30.858Z,8.13
2023-02-03T14:43:19.138Z,11.53
2023-02-03T14:46:00.905Z,10.13
2023-02-03T14:48:50.443Z,9.80
2023-02-03T14:51:42.875Z,11.90
2023-02-03T14:54:16.436Z,7.63
2023-02-03T14:57:21.245Z,14.80
2023-02-03T15:00:06.000Z,14.50
2023-02-03T15:02:33.402Z,20.93
2023-02-03T15:05:12.319Z,20.97
2023-02-03T15:07:44.493Z,15.70
2023-02-03T15:10:19.446Z,22.23
2023-02-03T15:12:48.038Z,11.33
2023-02-03T15:15:18.561Z,15.03
2023-02-03T15:17:45.168Z,13.43
2023-02-03T15:20:24.426Z,15.23
2023-02-03T15:22:51.033Z,11.00
2023-02-03T15:25:18.390Z,11.33
2023-02-03T15:27:45.185Z,15.47
2023-02-03T15:30:30.511Z,15.17
2023-02-03T15:33:04.999Z,11.60
2023-02-03T15:35:33.147Z,12.33
2023-02-03T15:38:04.296Z,10.60
2023-02-03T15:40:47.262Z,11.67
2023-02-03T15:43:24.282Z,12.30
2023-02-03T15:46:02.433Z,13.73
2023-02-03T15:48:31.253Z,15.13
2023-02-03T15:51:04.591Z,10.53
2023-02-03T15:53:46.727Z,9.77
2023-02-03T15:56:35.250Z,11.43
2023-02-03T15:59:01.893Z,11.40
2023-02-03T16:01:28.557Z,9.33
2023-02-03T16:03:55.984Z,9.83
2023-02-03T16:06:35.417Z,15.07
2023-02-03T16:09:02.295Z,10.53
2023-02-03T16:11:39.603Z,10.13
2023-02-03T16:14:32.570Z,10.43
2023-02-03T16:17:05.558Z,9.07
2023-02-03T16:19:38.005Z,11.77
2023-02-03T16:22:04.693Z,11.30
2023-02-03T16:24:38.076Z,12.67
2023-02-03T16:27:26.782Z,8.60
2023-02-03T16:30:24.136Z,8.00
2023-02-03T16:33:27.475Z,8.97
2023-02-03T16:36:15.094Z,10.93
2023-02-03T16:39:04.380Z,8.03
2023-02-03T16:41:49.753Z,10.10
2023-02-03T16:44:35.121Z,6.30
2023-02-03T16:47:20.617Z,10.87
2023-02-03T16:50:06.094Z,12.60
2023-02-03T16:52:32.783Z,11.07
2023-02-03T16:54:59.445Z,9.33
2023-02-03T16:57:26.029Z,12.90
2023-02-03T16:59:52.632Z,11.33
2023-02-03T17:02:19.334Z,15.60
2023-02-03T17:04:45.994Z,12.53
2023-02-03T17:07:12.603Z,13.77
2023-02-03T17:09:39.246Z,10.43
2023-02-03T17:12:06.195Z,14.33
2023-02-03T17:14:32.793Z,15.30
2023-02-03T17:16:59.407Z,15.57
2023-02-03T17:19:26.064Z,18.30
2023-02-03T17:21:53.273Z,15.70
2023-02-03T17:24:20.204Z,18.40
2023-02-03T17:26:46.835Z,18.77
2023-02-03T17:29:13.476Z,21.10
2023-02-03T17:31:40.160Z,15.93
2023-02-03T17:34:06.768Z,21.27
2023-02-03T17:36:33.369Z,19.87
2023-02-03T17:55:25.008Z,24.03
2023-02-03T17:57:51.902Z,29.23
2023-02-03T18:00:18.638Z,25.27
2023-02-03T18:02:48.597Z,21.90
2023-02-03T18:05:15.179Z,30.73
2023-02-03T18:07:41.965Z,29.90
2023-02-03T18:10:08.954Z,31.73
2023-02-03T18:12:35.554Z,29.40
2023-02-03T18:15:02.189Z,28.67
2023-02-03T18:17:28.833Z,23.00
2023-02-03T18:19:56.396Z,23.27
2023-02-03T18:22:23.198Z,22.93
2023-02-03T18:24:51.532Z,21.40
2023-02-03T18:27:18.391Z,24.00
2023-02-03T18:29:45.516Z,22.97
2023-02-03T18:32:12.763Z,21.90
2023-02-03T18:34:39.396Z,23.23
2023-02-03T18:37:05.997Z,19.53
2023-02-03T18:39:32.644Z,23.97
2023-02-03T18:41:59.238Z,23.33
2023-02-03T18:44:27.339Z,23.37
2023-02-03T18:46:54.307Z,23.73
2023-02-03T18:49:21.027Z,25.27
2023-02-03T18:51:47.604Z,20.30
2023-02-03T18:54:14.207Z,23.90
2023-02-03T18:56:40.810Z,24.23
2023-02-03T18:59:08.806Z,24.63
2023-02-03T19:01:35.704Z,26.77
2023-02-03T19:04:03.219Z,20.73
2023-02-03T19:06:30.566Z,22.37
2023-02-03T19:08:57.765Z,23.03
2023-02-03T19:11:24.460Z,21.83
2023-02-03T19:13:51.097Z,21.27
2023-02-03T19:16:17.954Z,24.67
2023-02-03T19:18:45.280Z,25.83
2023-02-03T19:21:12.612Z,20.73
2023-02-03T19:23:42.200Z,18.17
2023-02-03T19:26:09.863Z,21.00
2023-02-03T19:28:36.615Z,18.27
2023-02-03T19:31:15.093Z,22.87
2023-02-03T19:33:41.818Z,29.07
2023-02-03T19:36:08.748Z,17.50
2023-02-03T19:38:35.627Z,20.63
2023-02-03T19:41:02.473Z,102.73
2023-02-03T19:43:29.987Z,100.90
2023-02-03T19:45:56.651Z,69.03
2023-02-03T19:48:23.274Z,59.73
2023-02-03T19:50:49.914Z,54.17
2023-02-03T19:53:16.779Z,45.53
2023-02-03T19:55:43.748Z,48.63
2023-02-03T19:58:10.780Z,45.00
2023-02-03T20:00:37.391Z,39.97
2023-02-03T20:03:03.968Z,45.70
2023-02-03T20:05:30.707Z,47.80
2023-02-03T20:07:57.321Z,40.93
2023-02-03T20:10:26.281Z,43.27
2023-02-03T20:12:56.355Z,38.60
2023-02-03T20:15:22.952Z,39.93
2023-02-03T20:17:49.570Z,37.73
2023-02-03T20:20:27.220Z,37.37
2023-02-03T20:22:53.818Z,36.80
2023-02-03T20:25:20.959Z,33.23
2023-02-03T20:27:47.599Z,30.97
2023-02-03T20:30:14.319Z,28.03
2023-02-03T20:32:40.945Z,32.13
2023-02-03T20:35:07.981Z,28.37
2023-02-03T20:37:36.291Z,29.27
2023-02-03T20:40:06.240Z,28.47
2023-02-03T20:42:32.846Z,33.97
2023-02-03T20:44:59.550Z,28.17
2023-02-03T20:47:26.142Z,25.73
2023-02-03T20:49:52.850Z,30.37
2023-02-03T20:52:20.321Z,30.37
2023-02-03T20:54:47.790Z,29.73
2023-02-03T20:57:16.114Z,23.60
2023-02-03T20:59:44.455Z,30.20
2023-02-03T21:02:23.037Z,21.33
2023-02-03T21:04:58.668Z,30.03
2023-02-03T21:07:27.512Z,21.93
2023-02-03T21:09:54.984Z,26.23
2023-02-03T21:12:21.579Z,29.53
2023-02-03T21:14:48.872Z,30.40
2023-02-03T21:17:20.476Z,22.33
2023-02-03T21:19:47.084Z,23.13
2023-02-03T21:22:18.044Z,30.63
2023-02-03T21:24:53.227Z,22.13
2023-02-03T21:27:33.376Z,22.53
2023-02-03T21:30:01.246Z,26.47
2023-02-03T21:32:40.569Z,24.10
2023-02-03T21:35:22.750Z,29.70
2023-02-03T21:37:57.043Z,26.63
2023-02-03T21:40:26.194Z,20.23
2023-02-03T21:42:54.054Z,24.87
2023-02-03T21:45:36.786Z,18.90
2023-02-03T21:48:26.268Z,31.03
2023-02-03T21:50:53.692Z,22.70
2023-02-03T21:53:31.537Z,22.90
2023-02-03T21:56:18.904Z,23.50
2023-02-03T21:58:47.277Z,23.50
2023-02-03T22:01:16.623Z,25.27
2023-02-03T22:03:48.970Z,23.13
2023-02-03T22:06:19.194Z,23.03
2023-02-03T22:08:47.249Z,24.60
2023-02-03T22:11:14.507Z,20.07
2023-02-03T22:13:41.176Z,25.60
2023-02-03T22:16:07.993Z,20.03
2023-02-03T22:18:34.792Z,24.90
2023-02-03T22:21:02.115Z,39.83
2023-02-03T22:23:29.079Z,31.30
2023-02-03T22:25:55.746Z,39.73
2023-02-03T22:28:22.356Z,34.80
2023-02-03T22:30:49.138Z,34.77
2023-02-03T22:33:15.776Z,32.30
2023-02-03T22:35:42.423Z,27.37
2023-02-03T22:38:09.010Z,27.77
2023-02-03T22:40:35.608Z,26.10
2023-02-03T22:43:02.969Z,24.27
2023-02-03T22:45:29.689Z,34.53
2023-02-03T22:47:58.331Z,19.50
2023-02-03T22:50:35.102Z,29.53
2023-02-03T22:53:04.166Z,24.43
2023-02-03T22:55:30.889Z,25.07
2023-02-03T22:57:57.527Z,6.57
2023-02-03T23:00:24.676Z,6.47
2023-02-03T23:02:51.413Z,18.37
2023-02-03T23:05:18.262Z,22.60
2023-02-03T23:07:45.300Z,16.17
2023-02-03T23:10:17.651Z,11.70
2023-02-03T23:12:44.446Z,15.67
2023-02-03T23:15:11.114Z,13.33
2023-02-03T23:17:37.794Z,14.50
2023-02-03T23:20:05.590Z,12.23
2023-02-03T23:22:32.222Z,9.20
2023-02-03T23:25:00.219Z,10.80
2023-02-03T23:27:26.960Z,9.03
2023-02-03T23:29:53.562Z,11.17
2023-02-03T23:32:20.236Z,11.07
2023-02-03T23:35:05.338Z,11.13
2023-02-03T23:37:31.938Z,8.50
2023-02-03T23:39:58.534Z,11.80
2023-02-03T23:42:25.150Z,8.43
2023-02-03T23:44:51.779Z,8.80
2023-02-03T23:47:18.379Z,9.70
2023-02-03T23:49:44.960Z,10.50
2023-02-03T23:52:11.549Z,10.33
2023-02-03T23:54:38.144Z,9.77
2023-02-03T23:57:04.857Z,14.40
2023-02-03T23:59:31.653Z,10.47
